Time;durP1;ratioP1;P1;durP2;ratioP2;P2;SDS_P1;SDS_P2;PMS_P1;PMS_P2;Temp;Humidity;BMP_temperature;BMP_pressure;BME280_temperature;BME280_humidity;BME280_pressure;Samples;Min_cycle;Max_cycle;Signal;HPM_P1;HPM_P2
2021/07/06 00:00:43;;;;;;;;;;;;;;;;;;5031695;28;20011;-75
2021/07/06 00:03:10;;;;;;;;;;;;;;;;;;5028190;28;19967;-75
2021/07/06 00:05:38;;;;;;;;;;;;;;;;;;5045394;28;20403;-75
2021/07/06 00:08:05;;;;;;;;;;;;;;;;;;5028394;28;20011;-75
2021/07/06 00:10:32;;;;;;;;;;;;;;;;;;5046424;28;19928;-75
2021/07/06 00:12:59;;;;;;;;;;;;;;;;;;5045831;28;20134;-75
2021/07/06 00:15:26;;;;;;;;;;;;;;;;;;5045783;28;20019;-75
2021/07/06 00:17:53;;;;;;;;;;;;;;;;;;5046803;28;20043;-75
2021/07/06 00:20:21;;;;;;;;;;;;;;;;;;5046081;28;20047;-75
2021/07/06 00:22:48;;;;;;;;;;;;;;;;;;5046337;28;19935;-75
2021/07/06 00:25:15;;;;;;;;;;;;;;;;;;5045829;28;19929;-75
2021/07/06 00:27:42;;;;;;;;;;;;;;;;;;5045455;28;19935;-75
2021/07/06 00:30:09;;;;;;;;;;;;;;;;;;5045653;28;19925;-75
2021/07/06 00:32:37;;;;;;;;;;;;;;;;;;5046011;28;19929;-75
2021/07/06 00:35:04;;;;;;;;;;;;;;;;;;5027699;28;19929;-75
2021/07/06 00:37:31;;;;;;;;;;;;;;;;;;5027151;28;19951;-75
2021/07/06 00:39:58;;;;;;;;;;;;;;;;;;5027368;28;20051;-75
2021/07/06 00:42:26;;;;;;;;;;;;;;;;;;5043620;28;19990;-75
2021/07/06 00:44:54;;;;;;;;;;;;;;;;;;5027443;28;19968;-75
2021/07/06 00:47:21;;;;;;;;;;;;;;;;;;5027646;28;19935;-75
2021/07/06 00:49:48;;;;;;;;;;;;;;;;;;5045556;28;20287;-75
2021/07/06 00:52:15;;;;;;;;;;;;;;;;;;5045825;28;19972;-76
2021/07/06 00:54:42;;;;;;;;;;;;;;;;;;5044992;28;20353;-76
2021/07/06 00:57:09;;;;;;;;;;;;;;;;;;5046009;28;20027;-76
2021/07/06 00:59:36;;;;;;;;;;;;;;;;;;5027936;28;19928;-76
2021/07/06 01:02:03;;;;;;;;;;;;;;;;;;5043943;28;20707;-76
2021/07/06 01:04:30;;;;;;;;;;;;;;;;;;5045440;28;20073;-76
2021/07/06 01:06:58;;;;;;;;;;;;;;;;;;5045034;28;19968;-76
2021/07/06 01:09:25;;;;;;;;;;;;;;;;;;5043543;28;20028;-76
2021/07/06 01:11:52;;;;;;;;;;;;;;;;;;5045342;28;20051;-76
2021/07/06 01:14:19;;;;;;;;;;;;;;;;;;5045569;28;20016;-76
2021/07/06 01:16:47;;;;;;;;;;;;;;;;;;5045120;28;20407;-76
2021/07/06 01:19:14;;;;;;;;;;;;;;;;;;5045629;28;19990;-76
2021/07/06 01:21:41;;;;;;;;;;;;;;;;;;5027824;28;19929;-76
2021/07/06 01:24:08;;;;;;;;;;;;;;;;;;5038432;28;20780;-76
2021/07/06 01:26:35;;;;;;;;;;;;;;;;;;5045379;28;19995;-76
2021/07/06 01:29:02;;;;;;;;;;;;;;;;;;5028856;28;19931;-76
2021/07/06 01:31:30;;;;;;;;;;;;;;;;;;5027511;28;19952;-75
2021/07/06 01:33:57;;;;;;;;;;;;;;;;;;5045467;28;19935;-76
2021/07/06 01:36:24;;;;;;;;;;;;;;;;;;5027374;28;19968;-76
2021/07/06 01:38:51;;;;;;;;;;;;;;;;;;5047806;28;19968;-76
2021/07/06 01:41:18;;;;;;;;;;;;;;;;;;5031685;28;20015;-76
2021/07/06 01:43:46;;;;;;;;;;;;;;;;;;5049220;28;19939;-76
2021/07/06 01:46:13;;;;;;;;;;;;;;;;;;5048440;28;19960;-76
2021/07/06 01:48:40;;;;;;;;;;;;;;;;;;5031478;28;20020;-76
2021/07/06 01:51:07;;;;;;;;;;;;;;;;;;5048628;28;20535;-76
2021/07/06 01:53:34;;;;;;;;;;;;;;;;;;5048503;28;19972;-76
2021/07/06 01:56:01;;;;;;;;;;;;;;;;;;5030473;28;19929;-76
2021/07/06 01:58:31;;;;;;;;;;;;;;;;;;5048582;28;20109;-76
2021/07/06 02:00:58;;;;;;;;;;;;;;;;;;5030375;28;19968;-76
2021/07/06 02:03:26;;;;;;;;;;;;;;;;;;5029495;28;20384;-76
2021/07/06 02:05:57;;;;;;;;;;;;;;;;;;5047502;28;19928;-76
2021/07/06 02:08:24;;;;;;;;;;;;;;;;;;5030147;28;19975;-76
2021/07/06 02:10:51;;;;;;;;;;;;;;;;;;5048642;28;19928;-76
2021/07/06 02:13:19;;;;;;;;;;;;;;;;;;5048975;28;19975;-76
2021/07/06 02:15:46;;;;;;;;;;;;;;;;;;5047708;28;19933;-76
2021/07/06 02:18:19;;;;;;;;;;;;;;;;;;5037295;28;19955;-76
2021/07/06 02:20:46;;;;;;;;;;;;;;;;;;5048617;28;20363;-76
2021/07/06 02:23:13;;;;;;;;;;;;;;;;;;5044159;28;20028;-76
2021/07/06 02:25:40;;;;;;;;;;;;;;;;;;5045238;28;19968;-76
2021/07/06 02:28:07;;;;;;;;;;;;;;;;;;5048439;28;19943;-76
2021/07/06 02:30:35;;;;;;;;;;;;;;;;;;5030252;28;19968;-75
2021/07/06 02:33:02;;;;;;;;;;;;;;;;;;5048096;28;19928;-76
2021/07/06 02:35:29;;;;;;;;;;;;;;;;;;5048297;28;19939;-76
2021/07/06 02:37:56;;;;;;;;;;;;;;;;;;5030422;28;19929;-76
2021/07/06 02:40:23;;;;;;;;;;;;;;;;;;5047886;28;20405;-76
2021/07/06 02:42:50;;;;;;;;;;;;;;;;;;5029997;28;19959;-76
2021/07/06 02:45:17;;;;;;;;;;;;;;;;;;5047018;28;20013;-76
2021/07/06 02:47:44;;;;;;;;;;;;;;;;;;5040378;28;19929;-76
2021/07/06 02:50:12;;;;;;;;;;;;;;;;;;5027616;28;19929;-76
2021/07/06 02:52:39;;;;;;;;;;;;;;;;;;5028172;28;20206;-76
2021/07/06 02:55:06;;;;;;;;;;;;;;;;;;5046776;28;19928;-76
2021/07/06 03:00:03;;;;;;;;;;;;;;;;;;5047501;28;19964;-76
2021/07/06 03:02:30;;;;;;;;;;;;;;;;;;5028200;28;19976;-76
2021/07/06 03:04:57;;;;;;;;;;;;;;;;;;5045398;28;19928;-76
2021/07/06 03:07:24;;;;;;;;;;;;;;;;;;5029755;28;20015;-76
2021/07/06 03:09:51;;;;;;;;;;;;;;;;;;5047588;28;19937;-76
2021/07/06 03:12:18;;;;;;;;;;;;;;;;;;5048287;28;20019;-76
2021/07/06 03:14:45;;;;;;;;;;;;;;;;;;5046868;28;20031;-76
2021/07/06 03:17:12;;;;;;;;;;;;;;;;;;5029226;28;19972;-76
2021/07/06 03:19:40;;;;;;;;;;;;;;;;;;5047870;28;19932;-76
2021/07/06 03:22:07;;;;;;;;;;;;;;;;;;5047730;28;20019;-76
2021/07/06 03:24:34;;;;;;;;;;;;;;;;;;5046885;28;20022;-76
2021/07/06 03:27:01;;;;;;;;;;;;;;;;;;5047231;28;19979;-76
2021/07/06 03:29:28;;;;;;;;;;;;;;;;;;5029579;28;19975;-76
2021/07/06 03:31:55;;;;;;;;;;;;;;;;;;5047256;28;20067;-76
2021/07/06 03:34:22;;;;;;;;;;;;;;;;;;5018941;28;19979;-76
2021/07/06 03:36:49;;;;;;;;;;;;;;;;;;5029145;28;20002;-76
2021/07/06 03:39:16;;;;;;;;;;;;;;;;;;5029527;28;20015;-76
2021/07/06 03:41:43;;;;;;;;;;;;;;;;;;5046660;28;20742;-76
2021/07/06 03:44:11;;;;;;;;;;;;;;;;;;5046835;28;19929;-76
2021/07/06 03:46:38;;;;;;;;;;;;;;;;;;5046353;28;20047;-76
2021/07/06 03:49:05;;;;;;;;;;;;;;;;;;5047215;28;19929;-76
2021/07/06 03:51:33;;;;;;;;;;;;;;;;;;5027371;28;20024;-76
2021/07/06 03:54:00;;;;;;;;;;;;;;;;;;5025626;28;20649;-76
2021/07/06 03:56:27;;;;;;;;;;;;;;;;;;5027427;28;20004;-76
2021/07/06 03:58:54;;;;;;;;;;;;;;;;;;5046517;28;20011;-76
2021/07/06 04:01:21;;;;;;;;;;;;;;;;;;5028734;28;19928;-76
2021/07/06 04:03:48;;;;;;;;;;;;;;;;;;5039387;28;19929;-76
2021/07/06 04:06:15;;;;;;;;;;;;;;;;;;5028229;28;19968;-76
2021/07/06 04:08:42;;;;;;;;;;;;;;;;;;5046157;28;20027;-76
2021/07/06 04:11:10;;;;;;;;;;;;;;;;;;5046231;28;19932;-76
2021/07/06 04:13:37;;;;;;;;;;;;;;;;;;5045972;28;20446;-76
2021/07/06 04:16:04;;;;;;;;;;;;;;;;;;5045987;28;20016;-76
2021/07/06 04:18:31;;;;;;;;;;;;;;;;;;5046464;28;20352;-76
2021/07/06 04:20:59;;;;;;;;;;;;;;;;;;5028797;28;20336;-76
2021/07/06 04:23:26;;;;;;;;;;;;;;;;;;5045917;28;20012;-76
2021/07/06 04:25:53;;;;;;;;;;;;;;;;;;5045812;28;20687;-76
2021/07/06 04:28:20;;;;;;;;;;;;;;;;;;5046200;28;19955;-76
2021/07/06 04:30:47;;;;;;;;;;;;;;;;;;5046207;28;20036;-76
2021/07/06 04:33:16;;;;;;;;;;;;;;;;;;5027770;28;21317;-76
2021/07/06 04:35:43;;;;;;;;;;;;;;;;;;5045789;28;20011;-76
2021/07/06 04:38:10;;;;;;;;;;;;;;;;;;5045589;28;20044;-76
2021/07/06 04:40:37;;;;;;;;;;;;;;;;;;5045762;28;19928;-76
2021/07/06 04:43:06;;;;;;;;;;;;;;;;;;5046195;28;19928;-76
2021/07/06 04:45:33;;;;;;;;;;;;;;;;;;5027011;28;20027;-77
2021/07/06 04:48:00;;;;;;;;;;;;;;;;;;5036426;28;20009;-77
2021/07/06 04:50:28;;;;;;;;;;;;;;;;;;5044010;28;20660;-77
2021/07/06 04:52:55;;;;;;;;;;;;;;;;;;5045641;28;20372;-77
2021/07/06 04:55:22;;;;;;;;;;;;;;;;;;5044943;28;19935;-77
2021/07/06 04:57:49;;;;;;;;;;;;;;;;;;5028027;28;20075;-77
2021/07/06 05:00:17;;;;;;;;;;;;;;;;;;5044207;28;19955;-76
2021/07/06 05:02:44;;;;;;;;;;;;;;;;;;5042303;28;20016;-79
2021/07/06 05:05:13;;;;;;;;;;;;;;;;;;5040266;28;20607;-79
2021/07/06 05:07:40;;;;;;;;;;;;;;;;;;5046947;28;20016;-77
2021/07/06 05:10:07;;;;;;;;;;;;;;;;;;5046022;28;20014;-79
2021/07/06 05:12:34;;;;;;;;;;;;;;;;;;5046008;28;20416;-77
2021/07/06 05:15:01;;;;;;;;;;;;;;;;;;5049620;28;19959;-78
2021/07/06 05:17:28;;;;;;;;;;;;;;;;;;5046886;28;20018;-76
2021/07/06 05:19:56;;;;;;;;;;;;;;;;;;5049293;28;19933;-77
2021/07/06 05:22:23;;;;;;;;;;;;;;;;;;5052659;28;20000;-84
2021/07/06 05:24:50;;;;;;;;;;;;;;;;;;5054383;28;19968;-83
2021/07/06 05:27:17;;;;;;;;;;;;;;;;;;5053919;28;19964;-82
2021/07/06 05:29:44;;;;;;;;;;;;;;;;;;5048136;28;19971;-83
2021/07/06 05:32:11;;;;;;;;;;;;;;;;;;5052119;28;19979;-81
2021/07/06 05:34:38;;;;;;;;;;;;;;;;;;5047204;28;19971;-80
2021/07/06 05:37:06;;;;;;;;;;;;;;;;;;5047275;28;20007;-80
2021/07/06 05:39:33;;;;;;;;;;;;;;;;;;5049183;28;20027;-80
2021/07/06 05:42:04;;;;;;;;;;;;;;;;;;5051672;28;19968;-81
2021/07/06 05:44:31;;;;;;;;;;;;;;;;;;5048866;28;20634;-82
2021/07/06 05:46:58;;;;;;;;;;;;;;;;;;5048575;28;19967;-81
2021/07/06 05:49:25;;;;;;;;;;;;;;;;;;5035467;28;19925;-81
2021/07/06 05:51:52;;;;;;;;;;;;;;;;;;5036167;28;19980;-81
2021/07/06 05:54:19;;;;;;;;;;;;;;;;;;5053434;28;19975;-82
2021/07/06 05:56:46;;;;;;;;;;;;;;;;;;5052730;28;19980;-81
2021/07/06 05:59:13;;;;;;;;;;;;;;;;;;5052931;28;20016;-82
2021/07/06 06:01:42;;;;;;;;;;;;;;;;;;5052451;28;20457;-81
2021/07/06 06:04:09;;;;;;;;;;;;;;;;;;5052870;28;19925;-81
2021/07/06 06:06:36;;;;;;;;;;;;;;;;;;5034445;28;19964;-81
2021/07/06 06:09:03;;;;;;;;;;;;;;;;;;5051952;28;20023;-81
2021/07/06 06:11:30;;;;;;;;;;;;;;;;;;5034095;28;19929;-81
2021/07/06 06:13:57;;;;;;;;;;;;;;;;;;5052262;28;19928;-81
2021/07/06 06:16:25;;;;;;;;;;;;;;;;;;5052081;28;20019;-79
2021/07/06 06:18:55;;;;;;;;;;;;;;;;;;5052642;28;19929;-79
2021/07/06 06:21:22;;;;;;;;;;;;;;;;;;5053480;28;19929;-80
2021/07/06 06:23:50;;;;;;;;;;;;;;;;;;5052994;28;19980;-79
2021/07/06 06:26:17;;;;;;;;;;;;;;;;;;5031728;28;19975;-78
2021/07/06 06:28:44;;;;;;;;;;;;;;;;;;5043450;28;20015;-79
2021/07/06 06:31:11;;;;;;;;;;;;;;;;;;5050928;28;19929;-80
2021/07/06 06:33:38;;;;;;;;;;;;;;;;;;5050961;28;20015;-79
2021/07/06 06:36:05;;;;;;;;;;;;;;;;;;5034066;28;20031;-79
2021/07/06 06:38:32;;;;;;;;;;;;;;;;;;5053270;28;20345;-79
2021/07/06 06:40:59;;;;;;;;;;;;;;;;;;5052024;28;20399;-79
2021/07/06 06:43:26;;;;;;;;;;;;;;;;;;5033585;28;19967;-79
2021/07/06 06:45:53;;;;;;;;;;;;;;;;;;5033502;28;20076;-79
2021/07/06 06:48:20;;;;;;;;;;;;;;;;;;5051328;28;20035;-80
2021/07/06 06:50:47;;;;;;;;;;;;;;;;;;5033412;28;20352;-80
2021/07/06 06:53:14;;;;;;;;;;;;;;;;;;5051462;28;20027;-79
2021/07/06 06:55:42;;;;;;;;;;;;;;;;;;5051240;28;20616;-79
2021/07/06 06:58:09;;;;;;;;;;;;;;;;;;5051944;28;20015;-79
2021/07/06 07:00:36;;;;;;;;;;;;;;;;;;5033082;28;20412;-80
2021/07/06 07:03:03;;;;;;;;;;;;;;;;;;5050689;28;19936;-79
2021/07/06 07:05:30;;;;;;;;;;;;;;;;;;5032582;28;19929;-80
2021/07/06 07:07:58;;;;;;;;;;;;;;;;;;5050708;28;20625;-80
2021/07/06 07:10:25;;;;;;;;;;;;;;;;;;5032374;28;20026;-79
2021/07/06 07:12:56;;;;;;;;;;;;;;;;;;5049053;28;20016;-80
2021/07/06 07:15:23;;;;;;;;;;;;;;;;;;5031507;28;19986;-80
2021/07/06 07:17:50;;;;;;;;;;;;;;;;;;5050072;28;19928;-80
2021/07/06 07:20:18;;;;;;;;;;;;;;;;;;5050372;28;19986;-80
2021/07/06 07:22:45;;;;;;;;;;;;;;;;;;5050347;28;19979;-80
2021/07/06 07:25:12;;;;;;;;;;;;;;;;;;5050274;28;19944;-79
2021/07/06 07:27:39;;;;;;;;;;;;;;;;;;5048575;28;19974;-78
2021/07/06 07:30:06;;;;;;;;;;;;;;;;;;5049619;28;19967;-79
2021/07/06 07:32:33;;;;;;;;;;;;;;;;;;5048363;28;20029;-79
2021/07/06 07:35:01;;;;;;;;;;;;;;;;;;5046723;28;20035;-79
2021/07/06 07:37:29;;;;;;;;;;;;;;;;;;5051258;28;19936;-80
2021/07/06 07:39:56;;;;;;;;;;;;;;;;;;5050943;28;19972;-80
2021/07/06 07:42:23;;;;;;;;;;;;;;;;;;5050890;28;19971;-81
2021/07/06 07:44:51;;;;;;;;;;;;;;;;;;5051617;28;20661;-80
2021/07/06 07:47:18;;;;;;;;;;;;;;;;;;5050846;28;20452;-81
2021/07/06 07:49:46;;;;;;;;;;;;;;;;;;5033834;28;20073;-81
2021/07/06 07:52:13;;;;;;;;;;;;;;;;;;5051877;28;19971;-80
2021/07/06 07:54:40;;;;;;;;;;;;;;;;;;5033751;28;20023;-81
2021/07/06 07:57:09;;;;;;;;;;;;;;;;;;5034312;28;20016;-81
2021/07/06 07:59:36;;;;;;;;;;;;;;;;;;5051123;28;19988;-81
2021/07/06 08:02:03;;;;;;;;;;;;;;;;;;5051291;28;20417;-82
2021/07/06 08:04:31;;;;;;;;;;;;;;;;;;5051805;28;19928;-81
2021/07/06 08:06:58;;;;;;;;;;;;;;;;;;5050241;28;20039;-79
2021/07/06 08:09:27;;;;;;;;;;;;;;;;;;5050856;28;19929;-80
2021/07/06 08:11:54;;;;;;;;;;;;;;;;;;5050453;28;19960;-79
2021/07/06 08:14:21;;;;;;;;;;;;;;;;;;5050030;28;19995;-79
2021/07/06 08:16:51;;;;;;;;;;;;;;;;;;5050140;28;19935;-80
2021/07/06 08:19:18;;;;;;;;;;;;;;;;;;5050883;28;20385;-80
2021/07/06 08:21:45;;;;;;;;;;;;;;;;;;5051294;28;20031;-80
2021/07/06 08:24:12;;;;;;;;;;;;;;;;;;5050573;28;19980;-79
2021/07/06 08:26:39;;;;;;;;;;;;;;;;;;5050147;28;19991;-80
2021/07/06 08:29:07;;;;;;;;;;;;;;;;;;5040271;28;20024;-79
2021/07/06 08:31:34;;;;;;;;;;;;;;;;;;5030627;28;19936;-80
2021/07/06 08:34:01;;;;;;;;;;;;;;;;;;5030563;28;19987;-79
2021/07/06 08:36:30;;;;;;;;;;;;;;;;;;5030655;28;20337;-79
2021/07/06 08:38:57;;;;;;;;;;;;;;;;;;5030661;28;19976;-80
2021/07/06 08:41:24;;;;;;;;;;;;;;;;;;5030363;28;20461;-80
2021/07/06 08:43:51;;;;;;;;;;;;;;;;;;5045641;28;20048;-80
2021/07/06 08:46:19;;;;;;;;;;;;;;;;;;5030583;28;20011;-80
2021/07/06 08:48:47;;;;;;;;;;;;;;;;;;5045504;28;19931;-80
2021/07/06 08:51:14;;;;;;;;;;;;;;;;;;5042803;28;20016;-79
2021/07/06 08:53:41;;;;;;;;;;;;;;;;;;5050431;28;19963;-80
2021/07/06 08:56:08;;;;;;;;;;;;;;;;;;5050041;28;20023;-79
2021/07/06 08:58:36;;;;;;;;;;;;;;;;;;5050398;28;19972;-80
2021/07/06 09:01:03;;;;;;;;;;;;;;;;;;5050495;28;19924;-80
2021/07/06 09:03:30;;;;;;;;;;;;;;;;;;5050260;28;19964;-80
2021/07/06 09:05:57;;;;;;;;;;;;;;;;;;5050117;28;20412;-80
2021/07/06 09:08:24;;;;;;;;;;;;;;;;;;5050526;28;20360;-79
2021/07/06 09:10:52;;;;;;;;;;;;;;;;;;5032535;28;20011;-80
2021/07/06 09:13:19;;;;;;;;;;;;;;;;;;5050404;28;20624;-80
2021/07/06 09:15:46;;;;;;;;;;;;;;;;;;5049657;28;20286;-80
2021/07/06 09:18:17;;;;;;;;;;;;;;;;;;5050926;28;20004;-80
2021/07/06 09:20:44;;;;;;;;;;;;;;;;;;5032914;28;19960;-80
2021/07/06 09:23:11;;;;;;;;;;;;;;;;;;5050102;28;20035;-80
2021/07/06 09:25:38;;;;;;;;;;;;;;;;;;5050360;28;19925;-80
2021/07/06 09:28:05;;;;;;;;;;;;;;;;;;5050703;28;20019;-80
2021/07/06 09:30:34;;;;;;;;;;;;;;;;;;5050819;28;19925;-80
2021/07/06 09:33:01;;;;;;;;;;;;;;;;;;5050450;28;19936;-80
2021/07/06 09:35:29;;;;;;;;;;;;;;;;;;5050091;28;19972;-80
2021/07/06 09:37:56;;;;;;;;;;;;;;;;;;5050161;28;20433;-80
2021/07/06 09:40:23;;;;;;;;;;;;;;;;;;5051055;28;19964;-81
2021/07/06 09:42:50;;;;;;;;;;;;;;;;;;5050598;28;19935;-80
2021/07/06 09:45:17;;;;;;;;;;;;;;;;;;5048701;28;20015;-80
2021/07/06 09:47:44;;;;;;;;;;;;;;;;;;5025613;28;20011;-80
2021/07/06 09:50:13;;;;;;;;;;;;;;;;;;5050449;28;19975;-81
2021/07/06 09:52:40;;;;;;;;;;;;;;;;;;5050512;28;19960;-81
2021/07/06 09:55:07;;;;;;;;;;;;;;;;;;5049696;28;20015;-81
2021/07/06 09:57:37;;;;;;;;;;;;;;;;;;5050548;28;20003;-80
2021/07/06 10:00:04;;;;;;;;;;;;;;;;;;5053389;28;20032;-80
2021/07/06 10:02:31;;;;;;;;;;;;;;;;;;5054215;28;19987;-80
2021/07/06 10:04:59;;;;;;;;;;;;;;;;;;5053733;28;19928;-80
2021/07/06 10:07:35;;;;;;;;;;;;;;;;;;5036051;28;19975;-80
2021/07/06 10:10:03;;;;;;;;;;;;;;;;;;5036355;28;20008;-80
2021/07/06 10:12:31;;;;;;;;;;;;;;;;;;5053805;28;20372;-80
2021/07/06 10:14:58;;;;;;;;;;;;;;;;;;5053339;28;19925;-80
2021/07/06 10:17:43;;;;;;;;;;;;;;;;;;5053212;28;19932;-80
2021/07/06 10:20:10;;;;;;;;;;;;;;;;;;5053563;28;20393;-80
2021/07/06 10:22:38;;;;;;;;;;;;;;;;;;5053627;28;19928;-80
2021/07/06 10:25:09;;;;;;;;;;;;;;;;;;5036349;28;20393;-80
2021/07/06 10:27:36;;;;;;;;;;;;;;;;;;5033687;28;19932;-80
2021/07/06 10:30:04;;;;;;;;;;;;;;;;;;5048753;28;20433;-80
2021/07/06 10:32:31;;;;;;;;;;;;;;;;;;5054247;28;19925;-80
2021/07/06 10:34:58;;;;;;;;;;;;;;;;;;5035686;28;19925;-81
2021/07/06 10:37:25;;;;;;;;;;;;;;;;;;5054392;28;20015;-80
2021/07/06 10:39:53;;;;;;;;;;;;;;;;;;5054757;28;20667;-80
2021/07/06 10:42:20;;;;;;;;;;;;;;;;;;5036232;28;20011;-80
2021/07/06 10:44:59;;;;;;;;;;;;;;;;;;5053207;28;19924;-81
2021/07/06 10:47:26;;;;;;;;;;;;;;;;;;5028301;28;19996;-80
2021/07/06 10:49:53;;;;;;;;;;;;;;;;;;5054363;28;19982;-81
2021/07/06 10:52:20;;;;;;;;;;;;;;;;;;5052876;28;20026;-80
2021/07/06 10:54:47;;;;;;;;;;;;;;;;;;5052401;28;20016;-81
2021/07/06 10:57:34;;;;;;;;;;;;;;;;;;5034814;28;19978;-81
2021/07/06 11:00:01;;;;;;;;;;;;;;;;;;5052921;28;19933;-81
2021/07/06 11:02:29;;;;;;;;;;;;;;;;;;5053089;28;20373;-80
2021/07/06 11:04:56;;;;;;;;;;;;;;;;;;5050373;28;20332;-80
2021/07/06 11:07:23;;;;;;;;;;;;;;;;;;5048972;28;19972;-80
2021/07/06 11:09:50;;;;;;;;;;;;;;;;;;5048533;28;20004;-80
2021/07/06 11:12:18;;;;;;;;;;;;;;;;;;5048601;28;20092;-80
2021/07/06 11:14:46;;;;;;;;;;;;;;;;;;5048511;28;19967;-80
2021/07/06 11:17:13;;;;;;;;;;;;;;;;;;5040675;28;19991;-80
2021/07/06 11:19:40;;;;;;;;;;;;;;;;;;5029183;28;19951;-80
2021/07/06 11:22:07;;;;;;;;;;;;;;;;;;5031923;28;20376;-80
2021/07/06 11:24:37;;;;;;;;;;;;;;;;;;5014550;28;19925;-80
2021/07/06 11:27:04;;;;;;;;;;;;;;;;;;5051724;28;20027;-81
2021/07/06 11:29:31;;;;;;;;;;;;;;;;;;5052339;28;20028;-80
2021/07/06 11:31:58;;;;;;;;;;;;;;;;;;5052048;28;20011;-80
2021/07/06 11:34:26;;;;;;;;;;;;;;;;;;5052172;28;19975;-81
2021/07/06 11:36:53;;;;;;;;;;;;;;;;;;5034309;28;19925;-81
2021/07/06 11:39:20;;;;;;;;;;;;;;;;;;5052128;28;20464;-80
2021/07/06 11:41:47;;;;;;;;;;;;;;;;;;5051893;28;20015;-81
2021/07/06 11:44:14;;;;;;;;;;;;;;;;;;5052054;28;19971;-80
2021/07/06 11:46:41;;;;;;;;;;;;;;;;;;5051865;28;19925;-81
2021/07/06 11:49:09;;;;;;;;;;;;;;;;;;5051925;28;19974;-81
2021/07/06 11:51:36;;;;;;;;;;;;;;;;;;5052317;28;20016;-81
2021/07/06 11:54:04;;;;;;;;;;;;;;;;;;5034267;28;20044;-81
2021/07/06 11:56:38;;;;;;;;;;;;;;;;;;5033748;28;20678;-81
2021/07/06 11:59:05;;;;;;;;;;;;;;;;;;5051651;28;20011;-80
2021/07/06 12:01:36;;;;;;;;;;;;;;;;;;5042647;28;20476;-81
2021/07/06 12:04:03;;;;;;;;;;;;;;;;;;5051439;28;19939;-81
2021/07/06 12:06:31;;;;;;;;;;;;;;;;;;5051652;28;19932;-81
2021/07/06 12:08:59;;;;;;;;;;;;;;;;;;5051761;28;19975;-81
2021/07/06 12:11:26;;;;;;;;;;;;;;;;;;5033488;28;19928;-81
2021/07/06 12:13:53;;;;;;;;;;;;;;;;;;5051152;28;20006;-80
2021/07/06 12:16:20;;;;;;;;;;;;;;;;;;5050562;28;19929;-80
2021/07/06 12:18:47;;;;;;;;;;;;;;;;;;5051275;28;19964;-80
2021/07/06 12:21:14;;;;;;;;;;;;;;;;;;5050786;28;20023;-80
2021/07/06 12:23:41;;;;;;;;;;;;;;;;;;5050418;28;20016;-80
2021/07/06 12:26:08;;;;;;;;;;;;;;;;;;5050974;28;19967;-80
2021/07/06 12:28:36;;;;;;;;;;;;;;;;;;5033174;28;20036;-80
2021/07/06 12:31:03;;;;;;;;;;;;;;;;;;5050242;28;19939;-80
2021/07/06 12:33:30;;;;;;;;;;;;;;;;;;5050929;28;19964;-79
2021/07/06 12:35:57;;;;;;;;;;;;;;;;;;5050588;28;20027;-81
2021/07/06 12:38:24;;;;;;;;;;;;;;;;;;5050431;28;19928;-80
2021/07/06 12:40:51;;;;;;;;;;;;;;;;;;5050501;28;19963;-80
2021/07/06 12:43:21;;;;;;;;;;;;;;;;;;5050370;28;19968;-80
2021/07/06 12:45:50;;;;;;;;;;;;;;;;;;5050210;28;19932;-80
2021/07/06 12:48:17;;;;;;;;;;;;;;;;;;5033157;28;19925;-80
2021/07/06 12:50:44;;;;;;;;;;;;;;;;;;5050276;28;19928;-80
2021/07/06 12:53:13;;;;;;;;;;;;;;;;;;5033045;28;20011;-80
2021/07/06 12:55:40;;;;;;;;;;;;;;;;;;5050529;28;19967;-80
2021/07/06 12:58:09;;;;;;;;;;;;;;;;;;5050215;28;19959;-80
2021/07/06 13:00:37;;;;;;;;;;;;;;;;;;5033012;28;20015;-81
2021/07/06 13:03:04;;;;;;;;;;;;;;;;;;5050414;28;19929;-80
2021/07/06 13:05:34;;;;;;;;;;;;;;;;;;5050187;28;19929;-81
2021/07/06 13:08:01;;;;;;;;;;;;;;;;;;5050099;28;19928;-80
2021/07/06 13:10:29;;;;;;;;;;;;;;;;;;5050481;28;19971;-80
2021/07/06 13:13:03;;;;;;;;;;;;;;;;;;5035023;28;19972;-80
2021/07/06 13:15:30;;;;;;;;;;;;;;;;;;5050284;28;20011;-81
2021/07/06 13:17:58;;;;;;;;;;;;;;;;;;5050498;28;20008;-80
2021/07/06 13:20:25;;;;;;;;;;;;;;;;;;5050554;28;20015;-80
2021/07/06 13:22:52;;;;;;;;;;;;;;;;;;5050803;28;20120;-80
2021/07/06 13:25:20;;;;;;;;;;;;;;;;;;5032464;28;19982;-81
2021/07/06 13:27:50;;;;;;;;;;;;;;;;;;5050497;28;20008;-80
2021/07/06 13:30:18;;;;;;;;;;;;;;;;;;5032523;28;20052;-80
2021/07/06 13:32:45;;;;;;;;;;;;;;;;;;5050270;28;20039;-80
2021/07/06 13:35:13;;;;;;;;;;;;;;;;;;5053227;28;19978;-80
2021/07/06 13:37:40;;;;;;;;;;;;;;;;;;5054294;28;19983;-80
2021/07/06 13:40:08;;;;;;;;;;;;;;;;;;5037146;28;19971;-80
2021/07/06 13:42:35;;;;;;;;;;;;;;;;;;5054096;28;20020;-80
2021/07/06 13:45:02;;;;;;;;;;;;;;;;;;5054124;28;19952;-80
2021/07/06 13:47:30;;;;;;;;;;;;;;;;;;5053599;28;20016;-79
2021/07/06 13:49:57;;;;;;;;;;;;;;;;;;5053596;28;19975;-80
2021/07/06 13:52:24;;;;;;;;;;;;;;;;;;5053574;28;19983;-80
2021/07/06 13:54:51;;;;;;;;;;;;;;;;;;5035874;28;20032;-78
2021/07/06 13:57:22;;;;;;;;;;;;;;;;;;5048974;28;20651;-77
2021/07/06 13:59:50;;;;;;;;;;;;;;;;;;5034318;28;20396;-84
2021/07/06 14:02:17;;;;;;;;;;;;;;;;;;5034410;28;20350;-85
2021/07/06 14:04:44;;;;;;;;;;;;;;;;;;5034287;28;20019;-84
2021/07/06 14:07:11;;;;;;;;;;;;;;;;;;5034231;28;19925;-84
2021/07/06 14:09:38;;;;;;;;;;;;;;;;;;5036330;28;19983;-84
2021/07/06 14:12:05;;;;;;;;;;;;;;;;;;5053809;28;19925;-83
2021/07/06 14:14:32;;;;;;;;;;;;;;;;;;5035914;28;20385;-84
2021/07/06 14:17:00;;;;;;;;;;;;;;;;;;5053599;28;19972;-83
2021/07/06 14:19:33;;;;;;;;;;;;;;;;;;5053328;28;19925;-84
2021/07/06 14:22:00;;;;;;;;;;;;;;;;;;5053731;28;20015;-84
2021/07/06 14:24:27;;;;;;;;;;;;;;;;;;5054273;28;19925;-86
2021/07/06 14:26:54;;;;;;;;;;;;;;;;;;5036321;28;19971;-86
2021/07/06 14:29:21;;;;;;;;;;;;;;;;;;5036304;28;19929;-86
2021/07/06 14:31:48;;;;;;;;;;;;;;;;;;5036371;28;19925;-87
2021/07/06 14:34:15;;;;;;;;;;;;;;;;;;5054316;28;19935;-89
2021/07/06 14:36:42;;;;;;;;;;;;;;;;;;5036386;28;20413;-87
2021/07/06 14:39:09;;;;;;;;;;;;;;;;;;5035405;28;19983;-88
2021/07/06 14:41:36;;;;;;;;;;;;;;;;;;5035280;28;19928;-86
2021/07/06 14:44:03;;;;;;;;;;;;;;;;;;5036035;28;19971;-89
2021/07/06 14:46:30;;;;;;;;;;;;;;;;;;5052692;28;20336;-86
2021/07/06 14:48:58;;;;;;;;;;;;;;;;;;5055985;28;19929;-86
2021/07/06 14:51:26;;;;;;;;;;;;;;;;;;5054030;28;19964;-87
2021/07/06 14:53:53;;;;;;;;;;;;;;;;;;5055869;28;19968;-87
2021/07/06 14:56:20;;;;;;;;;;;;;;;;;;5056965;28;19925;-88
2021/07/06 14:58:48;;;;;;;;;;;;;;;;;;5039742;28;20768;-89
2021/07/06 15:01:15;;;;;;;;;;;;;;;;;;5053215;28;20371;-88
2021/07/06 15:03:43;;;;;;;;;;;;;;;;;;5034961;28;19929;-86
2021/07/06 15:06:15;;;;;;;;;;;;;;;;;;5052812;28;19979;-86
2021/07/06 15:08:42;;;;;;;;;;;;;;;;;;5035538;28;20041;-86
2021/07/06 15:11:12;;;;;;;;;;;;;;;;;;5053301;28;20035;-86
2021/07/06 15:13:40;;;;;;;;;;;;;;;;;;5053026;28;19983;-85
2021/07/06 15:16:07;;;;;;;;;;;;;;;;;;5052452;28;19929;-87
2021/07/06 15:18:37;;;;;;;;;;;;;;;;;;5033349;28;19924;-86
2021/07/06 15:21:12;;;;;;;;;;;;;;;;;;5050871;28;19978;-86
2021/07/06 15:23:43;;;;;;;;;;;;;;;;;;5046934;28;20344;-87
2021/07/06 15:26:24;;;;;;;;;;;;;;;;;;5037799;28;19971;-86
2021/07/06 15:28:51;;;;;;;;;;;;;;;;;;5052140;28;19987;-87
2021/07/06 15:31:18;;;;;;;;;;;;;;;;;;5052407;28;19976;-87
2021/07/06 15:33:45;;;;;;;;;;;;;;;;;;5034734;28;19932;-87
2021/07/06 15:36:13;;;;;;;;;;;;;;;;;;5051918;28;19929;-87
2021/07/06 15:38:42;;;;;;;;;;;;;;;;;;5052308;28;19956;-86
2021/07/06 15:41:09;;;;;;;;;;;;;;;;;;5034961;28;19963;-87
2021/07/06 15:43:36;;;;;;;;;;;;;;;;;;5052840;28;20017;-87
2021/07/06 15:46:03;;;;;;;;;;;;;;;;;;5051714;28;20640;-86
2021/07/06 15:48:30;;;;;;;;;;;;;;;;;;5052063;28;19925;-86
2021/07/06 15:50:57;;;;;;;;;;;;;;;;;;5033929;28;20028;-86
2021/07/06 15:53:24;;;;;;;;;;;;;;;;;;5030701;28;20027;-85
2021/07/06 15:55:51;;;;;;;;;;;;;;;;;;5047152;28;19979;-85
2021/07/06 15:58:18;;;;;;;;;;;;;;;;;;5031578;28;19999;-86
2021/07/06 16:00:45;;;;;;;;;;;;;;;;;;5036451;28;19978;-85
2021/07/06 16:03:13;;;;;;;;;;;;;;;;;;5051346;28;20019;-86
2021/07/06 16:05:45;;;;;;;;;;;;;;;;;;5033978;28;19928;-86
2021/07/06 16:08:14;;;;;;;;;;;;;;;;;;5051692;28;19975;-85
2021/07/06 16:10:42;;;;;;;;;;;;;;;;;;5034218;28;19925;-85
2021/07/06 16:13:09;;;;;;;;;;;;;;;;;;5034327;28;20019;-85
2021/07/06 16:15:36;;;;;;;;;;;;;;;;;;5048327;28;20558;-83
2021/07/06 16:18:08;;;;;;;;;;;;;;;;;;5045220;28;19929;-81
2021/07/06 16:20:35;;;;;;;;;;;;;;;;;;5033684;28;20440;-85
2021/07/06 16:23:06;;;;;;;;;;;;;;;;;;5045498;28;20639;-86
2021/07/06 16:25:37;;;;;;;;;;;;;;;;;;5050296;28;19925;-85
2021/07/06 16:28:15;;;;;;;;;;;;;;;;;;5051482;28;19971;-85
2021/07/06 16:33:13;;;;;;;;;;;;;;;;;;5034246;28;20011;-85
2021/07/06 16:35:41;;;;;;;;;;;;;;;;;;5031535;28;19987;-84
2021/07/06 16:38:09;;;;;;;;;;;;;;;;;;5051613;28;19928;-82
2021/07/06 16:40:37;;;;;;;;;;;;;;;;;;5051296;28;19956;-83
2021/07/06 16:43:04;;;;;;;;;;;;;;;;;;5044487;28;20020;-83
2021/07/06 16:45:32;;;;;;;;;;;;;;;;;;5031097;28;20012;-79
2021/07/06 16:47:59;;;;;;;;;;;;;;;;;;5050487;28;19959;-79
2021/07/06 16:50:28;;;;;;;;;;;;;;;;;;5047105;28;19964;-80
2021/07/06 17:59:54;;;;;;;;;;;;;;;;;;5046123;28;19963;-82